Time;durP1;ratioP1;P1;durP2;ratioP2;P2;SDS_P1;SDS_P2;PMS_P1;PMS_P2;Temp;Humidity;BMP_temperature;BMP_pressure;BME280_temperature;BME280_humidity;BME280_pressure;Samples;Min_cycle;Max_cycle;Signal;HPM_P1;HPM_P2
2021/12/19 00:10:19;;;;;;;6.68;1.85;;;8.50;99.90;;;;;;4229869;27;20546;-87
2021/12/19 00:12:20;;;;;;;8.48;1.88;;;7.70;99.90;;;;;;4228338;28;20048;-87
2021/12/19 00:14:23;;;;;;;3.63;1.90;;;7.70;99.90;;;;;;4227154;28;20426;-86
2021/12/19 00:16:25;;;;;;;10.50;2.40;;;7.60;99.90;;;;;;4211891;28;20048;-87
2021/12/19 00:18:26;;;;;;;7.97;2.20;;;8.10;99.90;;;;;;4228711;28;20058;-87
2021/12/19 00:20:27;;;;;;;9.05;2.33;;;7.70;99.90;;;;;;4242262;27;20149;-87
2021/12/19 00:22:34;;;;;;;5.40;2.00;;;7.60;99.90;;;;;;4230114;28;20039;-89
2021/12/19 00:24:35;;;;;;;7.00;2.40;;;7.90;99.90;;;;;;4231664;28;20036;-88
2021/12/19 00:26:36;;;;;;;10.85;2.80;;;7.60;99.90;;;;;;4230679;28;20613;-86
2021/12/19 00:28:37;;;;;;;8.70;3.30;;;7.80;99.90;;;;;;4227735;28;20112;-89
2021/12/19 00:30:39;;;;;;;6.57;2.10;;;7.30;99.90;;;;;;4230477;28;20043;-88
2021/12/19 00:32:40;;;;;;;7.43;2.75;;;8.10;99.90;;;;;;4230336;28;20040;-87
2021/12/19 00:34:42;;;;;;;7.20;2.55;;;8.30;99.90;;;;;;4231123;28;20097;-87
2021/12/19 00:36:43;;;;;;;7.40;2.13;;;7.90;99.90;;;;;;4241981;27;20183;-84
2021/12/19 00:38:45;;;;;;;3.58;1.92;;;7.60;99.90;;;;;;4247626;27;20482;-85
2021/12/19 00:40:46;;;;;;;8.25;1.73;;;7.70;99.90;;;;;;4219620;28;20102;-86
2021/12/19 00:42:52;;;;;;;6.78;2.03;;;7.70;99.90;;;;;;4247665;27;20047;-86
2021/12/19 00:44:53;;;;;;;3.38;1.45;;;7.70;99.90;;;;;;4247542;27;20088;-86
2021/12/19 00:47:03;;;;;;;6.18;1.50;;;7.70;99.90;;;;;;4221181;28;20336;-85
2021/12/19 00:49:04;;;;;;;6.20;1.38;;;7.60;99.90;;;;;;4264828;27;20042;-86
2021/12/19 00:51:06;;;;;;;5.55;1.25;;;7.60;99.90;;;;;;4245829;27;20047;-86
2021/12/19 00:53:07;;;;;;;7.50;1.33;;;7.60;99.90;;;;;;4244563;27;20050;-86
2021/12/19 00:55:09;;;;;;;2.88;0.73;;;7.70;99.90;;;;;;4264752;27;20470;-85
2021/12/19 00:57:09;;;;;;;2.97;0.80;;;7.60;99.90;;;;;;4246180;27;20054;-86
2021/12/19 00:59:12;;;;;;;3.92;0.90;;;7.90;99.90;;;;;;4245973;27;20039;-86
2021/12/19 01:01:14;;;;;;;2.95;0.90;;;8.20;99.90;;;;;;4264575;27;20046;-86
2021/12/19 01:03:15;;;;;;;3.55;0.60;;;7.50;99.90;;;;;;4264113;27;20046;-86
2021/12/19 01:05:16;;;;;;;0.60;0.35;;;8.60;99.90;;;;;;4229271;28;20050;-86
2021/12/19 01:07:17;;;;;;;1.77;0.40;;;7.50;99.90;;;;;;4264575;27;20043;-86
2021/12/19 01:09:18;;;;;;;0.70;0.15;;;7.50;99.90;;;;;;4236574;27;20050;-86
2021/12/19 01:11:19;;;;;;;0.10;0.10;;;7.40;99.90;;;;;;4247466;27;20046;-86
2021/12/19 01:13:20;;;;;;;2.35;0.32;;;8.00;99.90;;;;;;4228745;28;20048;-86
2021/12/19 01:15:22;;;;;;;5.03;0.50;;;8.20;99.90;;;;;;4247400;27;20092;-86
2021/12/19 01:17:23;;;;;;;0.43;0.30;;;8.20;99.90;;;;;;4248389;27;20119;-86
2021/12/19 01:19:23;;;;;;;2.35;0.20;;;8.00;99.90;;;;;;4230418;28;20043;-85
2021/12/19 01:21:24;;;;;;;0.52;0.30;;;7.30;99.90;;;;;;4230278;28;20048;-86
2021/12/19 01:23:25;;;;;;;0.50;0.22;;;7.50;99.90;;;;;;4256230;27;20051;-85
2021/12/19 01:25:27;;;;;;;3.33;0.30;;;8.00;99.90;;;;;;4266351;27;20031;-85
2021/12/19 01:27:28;;;;;;;0.35;0.20;;;7.50;99.90;;;;;;4257156;28;20045;-85
2021/12/19 01:29:29;;;;;;;1.65;0.38;;;7.30;99.90;;;;;;4285133;27;20072;-85
2021/12/19 01:31:30;;;;;;;2.40;0.25;;;7.40;99.90;;;;;;4284506;27;20023;-86
2021/12/19 01:33:31;;;;;;;6.95;0.50;;;7.30;99.90;;;;;;4254749;28;20118;-85
2021/12/19 01:35:32;;;;;;;0.40;0.20;;;7.40;99.90;;;;;;4266215;27;20401;-86
2021/12/19 01:37:32;;;;;;;0.50;0.20;;;7.20;99.90;;;;;;4248069;28;20475;-86
2021/12/19 01:39:33;;;;;;;2.72;0.32;;;7.30;99.90;;;;;;4230934;28;20051;-86
2021/12/19 01:41:34;;;;;;;1.75;0.28;;;8.10;99.90;;;;;;4247919;28;20043;-86
2021/12/19 01:43:35;;;;;;;1.40;0.30;;;7.90;99.90;;;;;;4264521;27;20527;-86
2021/12/19 01:45:39;;;;;;;3.90;0.52;;;7.70;99.90;;;;;;4266141;27;20497;-86
2021/12/19 01:47:41;;;;;;;3.22;0.57;;;7.30;99.90;;;;;;4264425;27;20051;-86
2021/12/19 01:49:42;;;;;;;2.78;0.50;;;7.70;99.90;;;;;;4264537;27;20122;-86
2021/12/19 01:51:44;;;;;;;1.02;0.50;;;7.30;99.90;;;;;;4246345;28;20043;-86
2021/12/19 01:53:45;;;;;;;3.70;0.60;;;7.30;99.90;;;;;;4264882;27;20134;-86
2021/12/19 01:55:47;;;;;;;4.30;0.30;;;7.30;99.90;;;;;;4228817;28;20390;-86
2021/12/19 01:57:48;;;;;;;0.50;0.20;;;7.30;99.90;;;;;;4261892;27;20042;-86
2021/12/19 01:59:49;;;;;;;1.92;0.20;;;8.00;99.90;;;;;;4228589;28;20066;-86
2021/12/19 02:01:55;;;;;;;2.00;0.47;;;7.40;99.90;;;;;;4228890;28;20083;-86
2021/12/19 02:03:56;;;;;;;0.60;0.20;;;7.10;99.90;;;;;;4228317;28;20108;-86
2021/12/19 02:05:56;;;;;;;1.45;0.28;;;7.20;99.90;;;;;;4229077;28;20130;-86
2021/12/19 02:07:58;;;;;;;1.20;0.10;;;7.70;99.90;;;;;;4228603;28;20052;-86
2021/12/19 02:09:59;;;;;;;0.25;0.10;;;7.40;99.90;;;;;;4246662;27;20046;-86
2021/12/19 02:12:00;;;;;;;2.05;0.20;;;7.50;99.90;;;;;;4246779;28;20114;-86
2021/12/19 02:14:02;;;;;;;0.40;0.10;;;7.90;99.90;;;;;;4249394;27;20095;-86
2021/12/19 02:16:02;;;;;;;0.00;0.00;;;7.10;99.90;;;;;;4257387;27;20379;-87
2021/12/19 02:18:13;;;;;;;0.52;0.17;;;7.20;99.90;;;;;;4263638;27;20045;-86
2021/12/19 02:20:15;;;;;;;0.85;0.30;;;7.10;99.90;;;;;;4262961;27;20726;-86
2021/12/19 02:22:16;;;;;;;0.38;0.15;;;7.30;99.90;;;;;;4263927;27;20506;-86
2021/12/19 02:24:17;;;;;;;0.95;0.22;;;7.30;99.90;;;;;;4264753;27;20038;-86
2021/12/19 02:26:19;;;;;;;0.50;0.40;;;7.40;99.90;;;;;;4267359;27;20094;-86
2021/12/19 02:28:20;;;;;;;2.47;0.20;;;7.10;99.90;;;;;;4233791;27;20044;-86
2021/12/19 02:30:21;;;;;;;0.30;0.10;;;8.00;99.90;;;;;;4214970;28;20613;-86
2021/12/19 02:32:24;;;;;;;0.80;0.30;;;7.20;99.90;;;;;;4214615;28;20059;-85
2021/12/19 02:34:28;;;;;;;0.13;0.10;;;7.10;99.90;;;;;;4236047;27;20555;-86
2021/12/19 02:37:10;;;;;;;0.85;0.20;;;7.10;99.90;;;;;;4249814;27;20055;-86
2021/12/19 02:50:03;;;;;;;;;;;7.00;99.90;;;;;;4266253;27;20054;-86
2021/12/19 02:52:17;;;;;;;1.10;0.10;;;7.00;99.90;;;;;;4230371;28;19923;-87
2021/12/19 02:54:18;;;;;;;0.80;0.30;;;7.00;99.90;;;;;;4230761;28;20131;-86
2021/12/19 02:56:20;;;;;;;1.70;0.38;;;6.90;99.90;;;;;;4214653;28;20056;-87
2021/12/19 02:58:20;;;;;;;0.93;0.40;;;7.40;99.90;;;;;;4230992;28;20052;-87
2021/12/19 03:00:25;;;;;;;2.70;0.40;;;6.90;99.90;;;;;;4214211;28;20058;-86
2021/12/19 03:02:26;;;;;;;2.83;0.30;;;6.90;99.90;;;;;;4249140;27;20051;-87
2021/12/19 03:04:28;;;;;;;1.67;0.30;;;6.90;99.90;;;;;;4234109;27;20071;-87
2021/12/19 03:06:29;;;;;;;0.60;0.20;;;6.90;99.90;;;;;;4266160;27;20042;-87
2021/12/19 03:08:31;;;;;;;3.05;0.40;;;6.90;99.90;;;;;;4266195;27;20043;-87
2021/12/19 03:19:36;;;;;;;2.22;0.57;;;6.90;99.90;;;;;;4248760;27;20486;-87
2021/12/19 03:21:36;;;;;;;3.15;0.82;;;7.20;99.90;;;;;;4230926;28;20047;-87
2021/12/19 03:23:38;;;;;;;1.08;0.30;;;6.90;99.90;;;;;;4231336;28;20048;-87
2021/12/19 03:25:41;;;;;;;1.75;0.60;;;6.90;99.90;;;;;;4249196;27;20521;-87
2021/12/19 03:27:42;;;;;;;1.00;0.60;;;6.90;99.90;;;;;;4249075;27;20042;-86
2021/12/19 03:29:43;;;;;;;0.57;0.22;;;6.90;99.90;;;;;;4229105;28;20079;-87
2021/12/19 03:31:45;;;;;;;2.80;0.28;;;6.90;99.90;;;;;;4230891;28;20048;-87
2021/12/19 03:33:46;;;;;;;5.65;0.35;;;6.90;99.90;;;;;;4230998;28;20051;-87
2021/12/19 03:35:47;;;;;;;1.77;0.15;;;6.90;99.90;;;;;;4239108;27;20055;-87
2021/12/19 03:37:50;;;;;;;4.72;0.55;;;6.90;99.90;;;;;;4248392;27;20433;-87
2021/12/19 03:40:08;;;;;;;0.57;0.30;;;7.30;99.90;;;;;;4248908;27;20085;-87
2021/12/19 03:42:09;;;;;;;0.10;0.10;;;7.50;99.90;;;;;;4248522;27;20043;-87
2021/12/19 03:44:10;;;;;;;0.20;0.20;;;7.80;99.90;;;;;;4230906;28;20055;-87
2021/12/19 03:46:12;;;;;;;0.65;0.30;;;7.90;99.90;;;;;;4233020;27;20128;-87
2021/12/19 03:48:15;;;;;;;5.47;0.40;;;6.90;99.90;;;;;;4230583;28;20081;-87
2021/12/19 03:50:21;;;;;;;1.27;0.40;;;7.60;99.90;;;;;;4231145;28;20507;-87
2021/12/19 03:52:23;;;;;;;8.88;0.68;;;7.80;99.90;;;;;;4261761;27;20135;-86
2021/12/19 03:54:24;;;;;;;0.45;0.35;;;7.00;99.90;;;;;;4266101;27;20039;-86
2021/12/19 03:56:25;;;;;;;4.03;0.40;;;7.10;99.90;;;;;;4230359;28;20047;-86
2021/12/19 03:58:26;;;;;;;3.58;0.50;;;7.90;99.90;;;;;;4242575;27;20079;-86
2021/12/19 04:00:27;;;;;;;4.18;0.73;;;8.00;99.90;;;;;;4234764;27;20514;-87
2021/12/19 04:02:29;;;;;;;6.15;0.77;;;6.90;99.90;;;;;;4230185;28;20073;-86
2021/12/19 04:04:37;;;;;;;5.15;1.10;;;7.10;99.90;;;;;;4230043;28;20047;-87
2021/12/19 04:06:37;;;;;;;5.68;1.10;;;7.70;99.90;;;;;;4230216;28;20104;-86
2021/12/19 04:08:38;;;;;;;3.72;0.90;;;7.60;99.90;;;;;;4247945;27;20385;-87
2021/12/19 04:10:39;;;;;;;6.80;1.23;;;7.60;99.90;;;;;;4248280;27;20488;-86
2021/12/19 04:12:42;;;;;;;10.13;1.10;;;8.00;99.90;;;;;;4230614;28;20119;-87
2021/12/19 04:14:43;;;;;;;8.85;1.15;;;7.00;99.90;;;;;;4212882;28;20044;-87
2021/12/19 04:16:44;;;;;;;5.45;1.30;;;7.00;99.90;;;;;;4230239;28;20053;-87
2021/12/19 04:18:45;;;;;;;8.98;1.70;;;7.40;99.90;;;;;;4230108;28;20047;-86
2021/12/19 04:20:46;;;;;;;11.10;1.40;;;7.00;99.90;;;;;;4230057;28;20052;-86
2021/12/19 04:22:49;;;;;;;9.15;2.00;;;7.00;99.90;;;;;;4247818;27;20047;-88
2021/12/19 04:24:50;;;;;;;11.80;1.70;;;7.10;99.90;;;;;;4219848;28;20657;-85
2021/12/19 04:26:50;;;;;;;9.50;2.35;;;7.10;99.90;;;;;;4263351;27;20050;-87
2021/12/19 04:28:51;;;;;;;5.97;2.10;;;8.10;99.90;;;;;;4247941;27;20035;-85
2021/12/19 04:30:52;;;;;;;5.07;1.88;;;8.00;99.90;;;;;;4229730;28;20088;-85
2021/12/19 04:33:03;;;;;;;9.20;1.77;;;7.10;99.90;;;;;;4246885;27;20074;-86
2021/12/19 04:35:05;;;;;;;10.00;2.10;;;7.80;99.90;;;;;;4229105;28;20090;-86
2021/12/19 04:37:25;;;;;;;7.97;2.53;;;7.10;99.90;;;;;;4228999;28;20412;-86
2021/12/19 04:57:56;;;;;;;12.63;2.40;;;7.10;99.90;;;;;;4245614;27;20401;-86
2021/12/19 05:00:06;;;;;;;13.50;2.97;;;7.90;99.90;;;;;;4229727;28;20036;-86
2021/12/19 05:04:20;;;;;;;10.70;2.65;;;7.60;99.90;;;;;;4264788;27;20047;-87
2021/12/19 05:15:37;;;;;;;7.57;2.70;;;7.40;99.90;;;;;;4249757;27;20078;-86
2021/12/19 05:17:38;;;;;;;16.17;3.10;;;7.20;99.90;;;;;;4247118;27;20039;-87
2021/12/19 05:20:06;;;;;;;9.00;3.95;;;7.20;99.90;;;;;;4229578;28;20043;-86
2021/12/19 05:22:07;;;;;;;10.67;2.93;;;7.70;99.90;;;;;;4230789;28;20048;-87
2021/12/19 05:24:43;;;;;;;11.95;4.07;;;7.20;99.90;;;;;;4229087;28;20089;-87
2021/12/19 05:26:44;;;;;;;13.02;3.88;;;7.20;99.90;;;;;;4228756;28;20055;-87
2021/12/19 05:28:48;;;;;;;11.73;3.40;;;7.60;99.90;;;;;;4228840;28;20527;-87
2021/12/19 05:30:49;;;;;;;9.40;3.42;;;7.30;99.90;;;;;;4229288;28;20062;-86
2021/12/19 05:32:51;;;;;;;13.40;3.60;;;7.70;99.90;;;;;;4218519;28;20097;-87
2021/12/19 05:34:51;;;;;;;13.95;4.35;;;7.20;99.90;;;;;;4237632;28;20102;-87
2021/12/19 05:45:59;;;;;;;19.38;3.95;;;7.20;99.90;;;;;;4229054;28;20055;-86
2021/12/19 05:48:00;;;;;;;16.00;2.95;;;7.20;99.90;;;;;;4228447;28;20043;-86
2021/12/19 05:50:00;;;;;;;11.63;3.03;;;7.20;99.90;;;;;;4247370;28;20047;-86
2021/12/19 05:52:01;;;;;;;9.32;2.80;;;7.20;99.90;;;;;;4212982;28;20097;-86
2021/12/19 05:54:03;;;;;;;8.52;2.42;;;7.10;99.90;;;;;;4212270;28;20107;-86
2021/12/19 05:56:04;;;;;;;6.40;2.60;;;7.50;99.90;;;;;;4246970;28;20043;-87
2021/12/19 05:58:05;;;;;;;7.65;2.00;;;7.10;99.90;;;;;;4248667;27;20047;-87
2021/12/19 06:00:12;;;;;;;9.43;2.20;;;7.10;99.90;;;;;;4263987;27;20047;-87
2021/12/19 06:02:13;;;;;;;13.43;2.38;;;7.10;99.90;;;;;;4231815;28;20263;-86
2021/12/19 06:04:14;;;;;;;10.52;2.40;;;7.10;99.90;;;;;;4231745;28;20487;-87
2021/12/19 06:06:14;;;;;;;5.38;2.20;;;7.10;99.90;;;;;;4248634;27;20047;-86
2021/12/19 06:08:15;;;;;;;11.77;2.25;;;7.20;99.90;;;;;;4232369;28;20609;-86
2021/12/19 06:10:16;;;;;;;11.43;3.10;;;7.10;99.90;;;;;;4215165;28;20044;-84
2021/12/19 06:12:17;;;;;;;14.40;2.38;;;7.70;99.90;;;;;;4249269;27;20046;-86
2021/12/19 06:14:17;;;;;;;11.90;2.80;;;7.10;99.90;;;;;;4250240;27;20482;-86
2021/12/19 06:16:18;;;;;;;7.07;2.17;;;7.20;99.90;;;;;;4231651;28;20052;-86
2021/12/19 06:18:19;;;;;;;13.38;2.50;;;7.40;99.90;;;;;;4249532;27;20035;-86
2021/12/19 06:20:20;;;;;;;9.85;2.45;;;7.20;99.90;;;;;;4249875;27;20531;-86
2021/12/19 06:22:21;;;;;;;13.90;2.33;;;7.10;99.90;;;;;;4235878;27;20047;-86
2021/12/19 06:24:22;;;;;;;8.07;2.00;;;7.10;99.90;;;;;;4249115;27;20421;-86
2021/12/19 06:26:23;;;;;;;11.32;2.20;;;7.10;99.90;;;;;;4232726;28;20051;-85
2021/12/19 06:28:24;;;;;;;9.68;1.70;;;7.10;99.90;;;;;;4247278;27;20122;-85
2021/12/19 06:30:25;;;;;;;7.32;1.52;;;7.10;99.90;;;;;;4214799;28;20055;-84
2021/12/19 06:32:26;;;;;;;8.30;1.52;;;7.10;99.90;;;;;;4231739;28;20040;-85
2021/12/19 06:34:26;;;;;;;13.18;1.80;;;7.60;99.90;;;;;;4235549;27;20047;-85
2021/12/19 06:36:27;;;;;;;7.22;1.65;;;7.10;99.90;;;;;;4248771;27;20059;-85
2021/12/19 06:38:29;;;;;;;6.13;1.30;;;7.10;99.90;;;;;;4249360;27;20058;-85
2021/12/19 06:40:30;;;;;;;5.13;1.30;;;7.10;99.90;;;;;;4231845;28;20047;-85
2021/12/19 06:42:31;;;;;;;5.75;1.88;;;7.10;99.90;;;;;;4231647;28;20168;-85
2021/12/19 06:44:33;;;;;;;13.88;2.42;;;7.70;99.90;;;;;;4231660;28;20140;-85
2021/12/19 06:46:34;;;;;;;12.95;2.15;;;7.10;99.90;;;;;;4255372;27;20543;-85
2021/12/19 06:48:36;;;;;;;8.40;1.83;;;7.80;99.90;;;;;;4248575;27;20043;-85
2021/12/19 06:50:36;;;;;;;9.48;1.73;;;7.20;99.90;;;;;;4247847;27;20486;-85
2021/12/19 06:52:39;;;;;;;7.18;1.40;;;7.10;99.90;;;;;;4263613;27;20189;-85
2021/12/19 06:54:40;;;;;;;7.78;1.35;;;7.10;99.90;;;;;;4266361;27;20067;-85
2021/12/19 06:56:41;;;;;;;4.97;1.27;;;7.70;99.90;;;;;;4266074;27;20047;-85
2021/12/19 06:58:42;;;;;;;5.63;1.38;;;7.10;99.90;;;;;;4259453;27;20079;-86
2021/12/19 07:00:44;;;;;;;7.25;1.38;;;7.10;99.90;;;;;;4214346;28;20052;-86
2021/12/19 07:02:45;;;;;;;3.05;1.38;;;7.10;99.90;;;;;;4249008;27;20097;-85
2021/12/19 07:04:46;;;;;;;3.95;1.42;;;7.30;99.90;;;;;;4249331;27;20039;-85
2021/12/19 07:06:46;;;;;;;9.65;1.20;;;7.30;99.90;;;;;;4249680;27;20050;-86
2021/12/19 07:08:47;;;;;;;7.82;1.48;;;7.10;99.90;;;;;;4219256;28;20050;-85
2021/12/19 07:10:49;;;;;;;7.50;2.13;;;7.10;99.90;;;;;;4230290;28;20130;-85
2021/12/19 07:12:49;;;;;;;6.25;1.30;;;7.10;99.90;;;;;;4265281;27;20046;-86
2021/12/19 07:14:50;;;;;;;5.85;1.30;;;7.10;99.90;;;;;;4266387;27;20065;-85
2021/12/19 07:16:51;;;;;;;8.10;1.73;;;7.10;99.90;;;;;;4247902;27;20049;-85
2021/12/19 07:18:53;;;;;;;10.57;1.52;;;7.20;99.90;;;;;;4266426;27;20027;-86
2021/12/19 07:20:53;;;;;;;3.88;1.27;;;7.90;99.90;;;;;;4237036;27;20058;-85
2021/12/19 07:22:57;;;;;;;5.65;1.02;;;7.60;99.90;;;;;;4248539;27;20043;-86
2021/12/19 07:24:58;;;;;;;7.78;1.33;;;7.10;99.90;;;;;;4213959;28;20047;-86
2021/12/19 07:26:58;;;;;;;13.93;2.00;;;7.20;99.90;;;;;;4229456;28;20098;-85
2021/12/19 07:28:59;;;;;;;9.18;1.52;;;7.90;99.90;;;;;;4258244;27;20047;-85
2021/12/19 07:31:01;;;;;;;12.70;2.30;;;8.00;99.90;;;;;;4264233;27;20402;-85
2021/12/19 07:33:06;;;;;;;10.98;1.40;;;7.20;99.90;;;;;;4241636;27;20480;-86
2021/12/19 07:35:09;;;;;;;10.77;1.35;;;7.20;99.90;;;;;;4229728;28;20047;-87
2021/12/19 07:37:10;;;;;;;13.60;2.05;;;7.20;99.90;;;;;;4230912;28;20071;-88
2021/12/19 07:39:23;;;;;;;5.07;1.10;;;7.70;99.90;;;;;;4232474;28;20369;-87
2021/12/19 07:41:25;;;;;;;7.55;1.80;;;7.50;99.90;;;;;;4238072;27;20039;-87
2021/12/19 07:43:28;;;;;;;9.90;1.15;;;8.00;99.90;;;;;;4214252;28;20032;-88
2021/12/19 07:45:32;;;;;;;7.78;1.38;;;7.20;99.90;;;;;;4248472;27;20541;-87
2021/12/19 07:47:32;;;;;;;5.75;2.08;;;7.20;99.90;;;;;;4246171;27;20554;-87
2021/12/19 07:49:34;;;;;;;5.78;1.30;;;7.20;99.90;;;;;;4231326;28;20046;-87
2021/12/19 07:51:34;;;;;;;15.75;1.40;;;8.10;99.90;;;;;;4242854;27;20043;-87
2021/12/19 07:53:36;;;;;;;8.00;1.35;;;7.20;99.90;;;;;;4230776;28;20054;-87
2021/12/19 07:55:37;;;;;;;12.85;1.90;;;7.20;99.90;;;;;;4248838;27;20050;-87
2021/12/19 07:57:40;;;;;;;9.70;1.30;;;8.10;99.90;;;;;;4247580;27;20055;-86
2021/12/19 07:59:40;;;;;;;9.35;1.55;;;7.20;99.90;;;;;;4246516;27;20082;-87
2021/12/19 08:01:41;;;;;;;6.47;1.20;;;7.20;99.90;;;;;;4231402;28;20048;-87
2021/12/19 08:03:42;;;;;;;11.00;1.48;;;7.20;99.90;;;;;;4231097;28;20407;-87
2021/12/19 08:05:45;;;;;;;6.15;1.27;;;7.80;99.90;;;;;;4214426;28;20052;-85
2021/12/19 08:07:48;;;;;;;6.85;1.38;;;7.20;99.90;;;;;;4230686;28;20043;-85
2021/12/19 08:12:08;;;;;;;9.10;1.15;;;7.20;99.90;;;;;;4230767;28;20048;-86
2021/12/19 08:14:15;;;;;;;5.40;1.10;;;7.30;99.90;;;;;;4249081;27;20054;-86
2021/12/19 08:16:15;;;;;;;8.38;0.75;;;7.30;99.90;;;;;;4248102;27;20039;-86
2021/12/19 08:18:16;;;;;;;3.38;1.05;;;8.30;99.90;;;;;;4249342;27;20054;-86
2021/12/19 08:20:18;;;;;;;6.53;1.42;;;7.30;99.90;;;;;;4230614;28;20067;-86
2021/12/19 08:22:20;;;;;;;7.80;1.10;;;7.90;99.90;;;;;;4217497;28;20163;-85
2021/12/19 08:24:22;;;;;;;13.75;2.47;;;7.30;99.90;;;;;;4231865;28;20050;-87
2021/12/19 08:26:22;;;;;;;6.07;1.48;;;7.30;99.90;;;;;;4248593;27;20115;-87
2021/12/19 08:28:30;;;;;;;6.90;1.50;;;7.40;99.90;;;;;;4215608;28;20055;-88
2021/12/19 08:30:34;;;;;;;9.65;2.00;;;7.30;99.90;;;;;;4248840;27;20051;-87
2021/12/19 08:32:35;;;;;;;6.70;1.20;;;7.30;99.90;;;;;;4230525;28;20043;-87
2021/12/19 08:34:36;;;;;;;10.27;1.52;;;8.00;99.90;;;;;;4220456;28;20127;-87
2021/12/19 08:36:37;;;;;;;6.30;0.88;;;7.30;99.90;;;;;;4265631;27;20062;-87
2021/12/19 08:38:38;;;;;;;13.35;1.52;;;7.80;99.90;;;;;;4265959;27;20046;-87
2021/12/19 08:40:39;;;;;;;6.05;1.40;;;7.80;99.90;;;;;;4246628;27;20485;-87
2021/12/19 08:42:41;;;;;;;8.00;1.98;;;7.70;99.90;;;;;;4247490;27;20043;-87
2021/12/19 08:44:42;;;;;;;7.57;1.40;;;7.30;99.90;;;;;;4247363;27;20098;-87
2021/12/19 08:46:45;;;;;;;10.27;1.40;;;7.40;99.90;;;;;;4222119;28;20504;-88
2021/12/19 08:48:46;;;;;;;14.40;1.48;;;7.40;99.90;;;;;;4229153;27;20051;-88
2021/12/19 08:50:48;;;;;;;7.30;1.33;;;7.40;99.90;;;;;;4212799;28;20095;-88
2021/12/19 08:52:52;;;;;;;7.30;2.00;;;7.40;99.90;;;;;;4247781;27;20487;-88
2021/12/19 08:54:53;;;;;;;15.80;1.50;;;7.70;99.90;;;;;;4247950;27;20230;-88
2021/12/19 08:56:54;;;;;;;4.70;0.85;;;7.40;99.90;;;;;;4212702;28;20048;-87
2021/12/19 08:58:56;;;;;;;10.27;1.35;;;8.30;99.90;;;;;;4238621;27;20058;-88
2021/12/19 09:01:01;;;;;;;9.90;1.70;;;8.10;99.90;;;;;;4237491;27;20046;-88
2021/12/19 09:03:02;;;;;;;6.47;1.10;;;8.20;99.90;;;;;;4229541;28;20044;-87
2021/12/19 09:05:03;;;;;;;7.15;1.17;;;7.50;99.90;;;;;;4237750;27;20061;-87
2021/12/19 09:07:04;;;;;;;12.35;1.35;;;7.50;99.90;;;;;;4248068;27;20392;-88
2021/12/19 09:09:05;;;;;;;9.35;1.25;;;8.20;99.90;;;;;;4248158;27;20074;-87
2021/12/19 09:11:07;;;;;;;11.75;2.08;;;8.30;99.90;;;;;;4248570;27;20127;-88
2021/12/19 09:13:09;;;;;;;4.82;1.05;;;7.90;99.90;;;;;;4248412;27;20407;-87
2021/12/19 09:15:10;;;;;;;10.00;1.40;;;8.50;99.90;;;;;;4230170;28;20055;-87
2021/12/19 09:17:11;;;;;;;10.48;1.80;;;7.80;99.90;;;;;;4248613;27;20468;-87
2021/12/19 09:19:13;;;;;;;7.80;1.20;;;7.50;99.90;;;;;;4248952;27;20074;-89
2021/12/19 09:21:14;;;;;;;6.75;0.90;;;7.50;99.90;;;;;;4214904;28;20074;-89
2021/12/19 09:23:17;;;;;;;9.65;1.40;;;8.50;99.90;;;;;;4235182;28;20043;-87
2021/12/19 09:25:20;;;;;;;7.75;1.50;;;7.50;99.90;;;;;;4267305;27;20046;-87
2021/12/19 09:27:20;;;;;;;6.63;1.25;;;7.60;99.90;;;;;;4263049;27;20035;-87
2021/12/19 09:29:21;;;;;;;14.45;2.28;;;7.60;99.90;;;;;;4266422;28;20069;-87
2021/12/19 09:31:31;;;;;;;10.68;1.58;;;7.60;99.90;;;;;;4249100;28;20059;-87
2021/12/19 09:33:32;;;;;;;5.20;1.73;;;7.60;99.90;;;;;;4248817;28;20040;-87
2021/12/19 09:35:34;;;;;;;11.95;1.60;;;8.00;99.90;;;;;;4282135;27;20037;-87
2021/12/19 09:37:37;;;;;;;5.55;1.20;;;7.60;99.90;;;;;;4267166;27;20161;-87
2021/12/19 09:39:41;;;;;;;13.68;2.10;;;8.00;99.90;;;;;;4231533;28;20044;-87
2021/12/19 09:41:44;;;;;;;13.27;2.05;;;7.60;99.90;;;;;;4236893;28;20051;-87
2021/12/19 09:43:48;;;;;;;16.85;2.00;;;7.60;99.90;;;;;;4249518;27;20048;-87
2021/12/19 09:45:53;;;;;;;15.82;1.73;;;7.50;99.90;;;;;;4238504;28;20036;-87
2021/12/19 09:47:54;;;;;;;13.57;1.73;;;8.40;99.90;;;;;;4236317;28;20054;-86
2021/12/19 09:49:57;;;;;;;5.03;1.38;;;7.60;99.90;;;;;;4218362;28;20495;-86
2021/12/19 09:52:08;;;;;;;7.88;1.38;;;7.60;99.90;;;;;;4233301;28;20062;-87
2021/12/19 09:54:10;;;;;;;9.85;1.58;;;7.60;99.90;;;;;;4233271;28;20043;-87
2021/12/19 09:56:12;;;;;;;11.57;1.90;;;8.60;99.90;;;;;;4232308;28;20084;-86
2021/12/19 09:58:13;;;;;;;11.23;1.55;;;7.70;99.90;;;;;;4215713;28;20079;-86
2021/12/19 10:00:14;;;;;;;12.02;1.58;;;7.90;99.90;;;;;;4232885;28;20564;-87
2021/12/19 10:02:16;;;;;;;12.57;1.48;;;7.70;99.90;;;;;;4216043;28;20048;-87
2021/12/19 10:04:44;;;;;;;7.68;1.30;;;7.60;99.90;;;;;;4249624;27;20162;-86
2021/12/19 10:06:44;;;;;;;10.00;1.65;;;7.70;99.90;;;;;;4246871;27;20543;-87
2021/12/19 10:08:51;;;;;;;11.90;1.13;;;7.90;99.90;;;;;;4251193;27;20043;-86
2021/12/19 10:11:00;;;;;;;7.47;1.35;;;7.70;99.90;;;;;;4223860;28;20044;-86
2021/12/19 10:13:05;;;;;;;17.58;2.15;;;7.70;99.90;;;;;;4234496;28;20031;-87
2021/12/19 10:15:10;;;;;;;7.97;0.93;;;7.70;99.90;;;;;;4236339;28;20043;-87
2021/12/19 10:17:18;;;;;;;11.73;1.70;;;8.60;99.90;;;;;;4235786;28;20048;-87
2021/12/19 10:19:20;;;;;;;8.18;1.17;;;7.70;99.90;;;;;;4218898;28;20051;-87
2021/12/19 10:21:29;;;;;;;6.13;1.58;;;7.20;99.90;;;;;;4236234;28;20403;-87
2021/12/19 10:23:36;;;;;;;1.98;0.75;;;7.70;99.90;;;;;;4219403;28;20070;-87
2021/12/19 10:25:37;;;;;;;10.02;0.68;;;7.70;99.90;;;;;;4234572;28;20397;-87
2021/12/19 10:27:47;;;;;;;6.75;1.02;;;7.70;99.90;;;;;;4234083;28;20039;-87
2021/12/19 10:29:51;;;;;;;8.07;1.08;;;7.70;99.90;;;;;;4248279;27;20452;-87
2021/12/19 10:32:04;;;;;;;5.10;1.00;;;7.90;99.90;;;;;;4232800;28;20077;-87
2021/12/19 10:34:23;;;;;;;9.68;1.17;;;7.70;99.90;;;;;;4234633;27;20040;-88
2021/12/19 10:36:24;;;;;;;9.93;1.23;;;7.80;99.90;;;;;;4232190;28;20112;-87
2021/12/19 10:38:31;;;;;;;9.73;1.15;;;8.10;99.90;;;;;;4232334;28;20055;-88
2021/12/19 10:40:32;;;;;;;5.38;1.90;;;7.80;99.90;;;;;;4232654;28;20047;-88
2021/12/19 10:42:44;;;;;;;13.73;2.58;;;7.80;99.90;;;;;;4234980;28;20395;-87
2021/12/19 10:47:28;;;;;;;11.23;2.17;;;7.80;99.90;;;;;;4246186;27;20055;-87
2021/12/19 10:49:32;;;;;;;5.32;1.10;;;7.80;99.90;;;;;;4232265;28;20118;-87
2021/12/19 10:51:42;;;;;;;6.10;1.33;;;8.20;99.90;;;;;;4250068;27;20120;-87
2021/12/19 10:53:55;;;;;;;4.93;0.90;;;7.90;99.90;;;;;;4217082;28;20083;-87
2021/12/19 10:55:57;;;;;;;10.80;1.30;;;7.90;99.90;;;;;;4260479;27;20105;-87
2021/12/19 10:57:58;;;;;;;6.65;1.15;;;7.90;99.90;;;;;;4219543;28;20055;-87
2021/12/19 11:00:04;;;;;;;6.35;0.90;;;7.90;99.90;;;;;;4234661;27;20040;-87
2021/12/19 11:02:05;;;;;;;15.13;1.25;;;8.00;99.90;;;;;;4246427;27;20038;-87
2021/12/19 11:04:10;;;;;;;10.85;1.52;;;8.20;99.90;;;;;;4249812;27;20139;-87
2021/12/19 11:06:15;;;;;;;5.30;1.38;;;8.00;99.90;;;;;;4231922;28;20058;-86
2021/12/19 11:08:15;;;;;;;12.68;1.33;;;8.00;99.90;;;;;;4249087;27;20055;-87
2021/12/19 11:10:30;;;;;;;10.73;1.75;;;8.50;99.90;;;;;;4238436;27;20039;-87
2021/12/19 11:12:31;;;;;;;8.45;1.17;;;8.00;99.90;;;;;;4249562;27;20043;-88
2021/12/19 11:14:42;;;;;;;9.98;1.52;;;8.00;99.90;;;;;;4249160;27;20050;-88
2021/12/19 11:16:43;;;;;;;14.80;1.45;;;8.00;99.90;;;;;;4244486;27;20047;-89
2021/12/19 11:18:48;;;;;;;18.00;1.70;;;8.70;99.90;;;;;;4254705;27;20039;-88
2021/12/19 11:20:50;;;;;;;4.75;1.40;;;8.00;99.90;;;;;;4252777;27;20110;-89
2021/12/19 11:22:54;;;;;;;8.98;1.60;;;8.10;99.90;;;;;;4252207;27;20039;-89
2021/12/19 11:24:59;;;;;;;9.88;1.05;;;8.10;99.90;;;;;;4251299;27;20479;-89
2021/12/19 11:27:03;;;;;;;10.55;1.05;;;8.60;99.90;;;;;;4248044;27;20079;-89
2021/12/19 11:29:06;;;;;;;12.20;2.70;;;8.10;99.90;;;;;;4235122;28;20043;-89
2021/12/19 11:31:08;;;;;;;7.88;1.40;;;9.00;99.90;;;;;;4242444;28;20086;-88
2021/12/19 11:33:25;;;;;;;6.13;2.10;;;8.70;99.90;;;;;;4219520;28;20071;-88
2021/12/19 11:35:33;;;;;;;13.00;1.42;;;8.10;99.90;;;;;;4236215;27;20034;-88
2021/12/19 11:37:42;;;;;;;10.20;1.23;;;7.50;99.90;;;;;;4248695;27;20055;-88
2021/12/19 11:39:55;;;;;;;10.52;1.33;;;8.10;99.90;;;;;;4214768;28;20048;-88
2021/12/19 11:42:16;;;;;;;8.23;1.38;;;8.10;99.90;;;;;;4215016;28;20138;-88
2021/12/19 11:45:08;;;;;;;14.52;1.38;;;8.20;99.90;;;;;;4214570;28;20499;-89
2021/12/19 11:47:14;;;;;;;14.40;1.60;;;8.20;99.90;;;;;;4232123;28;20074;-88
2021/12/19 11:49:19;;;;;;;15.00;1.83;;;8.70;99.90;;;;;;4232876;28;20420;-89
2021/12/19 11:51:22;;;;;;;12.10;1.48;;;9.00;99.90;;;;;;4231699;28;20565;-87
2021/12/19 11:53:33;;;;;;;11.88;1.45;;;8.30;99.90;;;;;;4215157;28;20142;-89
2021/12/19 11:55:41;;;;;;;26.75;2.00;;;8.20;99.90;;;;;;4217348;28;20468;-88
2021/12/19 11:58:03;;;;;;;10.95;1.52;;;8.70;99.90;;;;;;4229747;28;20036;-88
2021/12/19 12:00:47;;;;;;;10.77;1.33;;;8.40;99.90;;;;;;4234844;28;20064;-88
2021/12/19 12:02:47;;;;;;;14.63;1.67;;;8.20;99.90;;;;;;4253218;27;20043;-89